Bookmark and Share
Track history (hours):
 

Sjobris

Last reported at 2014-Apr-25 05:33 UTC. Time now 2014-Apr-25 06:03 UTC.
Position N 59°20' E 018°04'.

Length 38 m.

Type: Passenger vessel. MMSI: 265522700.

NotesDate/timePositionNaut miles runAvg speedWind from/ knotsBaromVisibWave heightAir tempDewpointWater temp
2014-Apr-25 05:33N 59°20' E 018°04'0 0.0
2014-Apr-25 04:33N 59°20' E 018°04'0 0.0
2014-Apr-25 03:33N 59°20' E 018°04'0 0.0
2014-Apr-25 02:33N 59°20' E 018°04'0 0.0
2014-Apr-25 01:33N 59°20' E 018°05'0 0.0
2014-Apr-25 00:33N 59°20' E 018°04'0 0.0
2014-Apr-24 23:33N 59°20' E 018°04'0 0.0
2014-Apr-24 22:33N 59°20' E 018°04'0 0.0
2014-Apr-24 21:33N 59°20' E 018°04'0 0.0
2014-Apr-24 20:33N 59°20' E 018°04'0 0.0
2014-Apr-24 19:33N 59°20' E 018°04'0 0.0
2014-Apr-24 18:33N 59°20' E 018°04'0 0.0
2014-Apr-24 17:33N 59°20' E 018°04'0 0.0
2014-Apr-24 16:33N 59°20' E 018°04'0 0.0
2014-Apr-24 15:33N 59°20' E 018°04'0 0.0
2014-Apr-24 14:33N 59°20' E 018°04'0 0.0
2014-Apr-24 13:33N 59°20' E 018°04'0 0.0
2014-Apr-24 12:33N 59°20' E 018°04'0 0.0
2014-Apr-24 11:33N 59°20' E 018°04'0 0.0
2014-Apr-24 10:33N 59°20' E 018°04'6 5.6
2014-Apr-24 09:33N 59°21' E 018°15'1 0.0
2014-Apr-22 13:27N 59°23' E 018°16'1 0.4
2014-Apr-22 12:19N 59°23' E 018°17'2 0.1
2014-Apr-21 19:25N 59°23' E 018°20'910.3
2014-Apr-21 18:33N 59°20' E 018°05'0 0.0
2014-Apr-21 17:33N 59°20' E 018°05'10 8.4
2014-Apr-21 16:20N 59°25' E 018°22'4 0.5
2014-Apr-21 07:33N 59°22' E 018°16'7 6.6
2014-Apr-21 06:33N 59°20' E 018°04'0 0.0
2014-Apr-21 05:33N 59°20' E 018°05'0 0.0
2014-Apr-21 04:33N 59°20' E 018°05'0 0.0
2014-Apr-21 03:33N 59°20' E 018°04'0 0.0
2014-Apr-21 02:33N 59°20' E 018°05'0 0.0
2014-Apr-21 01:33N 59°20' E 018°05'0 0.0
2014-Apr-21 00:33N 59°20' E 018°05'0 0.0
2014-Apr-20 23:33N 59°20' E 018°05'0 0.0
2014-Apr-20 22:33N 59°20' E 018°05'0 0.0
2014-Apr-20 21:33N 59°20' E 018°05'0 0.0
2014-Apr-20 20:33N 59°20' E 018°05'0 0.0
2014-Apr-20 19:33N 59°20' E 018°04'0 0.0
2014-Apr-20 18:33N 59°20' E 018°05'0 0.0
2014-Apr-20 17:33N 59°20' E 018°05'8 8.2
2014-Apr-20 16:33N 59°23' E 018°20'3 0.3
2014-Apr-20 07:32N 59°21' E 018°14'5 5.4
2014-Apr-20 06:33N 59°20' E 018°05'0 0.0
2014-Apr-20 05:33N 59°20' E 018°05'0 0.0
2014-Apr-20 04:33N 59°20' E 018°05'0 0.0
2014-Apr-20 03:33N 59°20' E 018°05'0 0.0
2014-Apr-20 02:33N 59°20' E 018°05'0 0.0
2014-Apr-20 01:33N 59°20' E 018°05'0 0.0
2014-Apr-20 00:32N 59°20' E 018°05'0 0.0
2014-Apr-19 23:33N 59°20' E 018°05'0 0.0
2014-Apr-19 22:33N 59°20' E 018°05'0 0.0
2014-Apr-19 21:33N 59°20' E 018°05'0 0.0
2014-Apr-19 20:33N 59°20' E 018°05'0 0.0
2014-Apr-19 19:33N 59°20' E 018°05'0 0.0
2014-Apr-19 18:33N 59°20' E 018°05'0 0.0
2014-Apr-19 17:33N 59°20' E 018°05'0 0.0
2014-Apr-19 16:33N 59°20' E 018°05'7 6.6
2014-Apr-19 15:33N 59°22' E 018°17'2 0.2
2014-Apr-19 07:32N 59°21' E 018°15'5 5.5
2014-Apr-19 06:34N 59°20' E 018°04'0 0.0
2014-Apr-19 05:33N 59°20' E 018°04'0 0.0
2014-Apr-19 04:34N 59°20' E 018°04'0 0.0
2014-Apr-19 03:33N 59°20' E 018°04'0 0.0
2014-Apr-19 02:34N 59°20' E 018°04'0 0.0
2014-Apr-19 01:33N 59°20' E 018°04'0 0.0
2014-Apr-19 00:33N 59°20' E 018°04'0 0.0
2014-Apr-18 23:34N 59°20' E 018°04'0 0.0
2014-Apr-18 22:34N 59°20' E 018°04'0 0.0
2014-Apr-18 21:34N 59°20' E 018°04'0 0.0
2014-Apr-18 20:34N 59°20' E 018°04'0 0.0
2014-Apr-18 19:34N 59°20' E 018°04'0 0.0
2014-Apr-18 18:34N 59°20' E 018°04'0 0.0
2014-Apr-18 17:34N 59°20' E 018°04'2 2.2
2014-Apr-18 16:33N 59°19' E 018°09'4 0.4
2014-Apr-18 07:33N 59°21' E 018°14'5 5.2
2014-Apr-18 06:33N 59°20' E 018°05'0 0.0
2014-Apr-18 05:33N 59°20' E 018°05'0 0.0
2014-Apr-18 04:33N 59°20' E 018°05'0 0.0
2014-Apr-18 03:33N 59°20' E 018°05'0 0.0
2014-Apr-18 02:33N 59°20' E 018°05'0 0.0
2014-Apr-18 01:33N 59°20' E 018°05'0 0.0
2014-Apr-18 00:33N 59°20' E 018°05'0 0.0
2014-Apr-17 23:33N 59°20' E 018°05'0 0.0
2014-Apr-17 22:33N 59°20' E 018°05'4 3.6
2014-Apr-17 21:33N 59°20' E 018°12'5 0.9
2014-Apr-17 15:18N 59°23' E 018°20'911.6
2014-Apr-17 14:34N 59°20' E 018°05'0 0.1
2014-Apr-17 13:33N 59°20' E 018°04'0 0.0
2014-Apr-17 12:33N 59°20' E 018°04'0 0.0
2014-Apr-17 11:33N 59°20' E 018°04'0 0.0
2014-Apr-17 10:33N 59°20' E 018°04'0 0.0
2014-Apr-17 09:33N 59°20' E 018°04'0 0.0
2014-Apr-17 08:33N 59°20' E 018°04'0 0.0
2014-Apr-17 07:33N 59°20' E 018°04'0 0.1
2014-Apr-17 06:33N 59°20' E 018°05'0 0.1
2014-Apr-17 05:33N 59°20' E 018°04'0 0.0
2014-Apr-17 04:33N 59°20' E 018°04'0 0.0
2014-Apr-17 03:33N 59°20' E 018°04'0 0.0
2014-Apr-17 02:33N 59°20' E 018°04'0 0.0
2014-Apr-17 01:33N 59°20' E 018°04'0 0.0
2014-Apr-17 00:33N 59°20' E 018°04'0 0.0
2014-Apr-16 23:33N 59°20' E 018°04'0 0.0
2014-Apr-16 22:33N 59°20' E 018°04'0 0.0
2014-Apr-16 21:33N 59°20' E 018°04'0 0.0
2014-Apr-16 20:33N 59°20' E 018°04'0 0.0
2014-Apr-16 19:33N 59°20' E 018°04'0 0.0
2014-Apr-16 18:33N 59°20' E 018°04'0 0.0
2014-Apr-16 17:33N 59°20' E 018°04'0 0.0
2014-Apr-16 16:33N 59°20' E 018°04'0 0.0
2014-Apr-16 15:33N 59°20' E 018°04'0 0.0
2014-Apr-16 14:33N 59°20' E 018°04'0 0.0
2014-Apr-16 13:33N 59°20' E 018°04'0 0.0
2014-Apr-16 12:33N 59°20' E 018°04'0 0.0
2014-Apr-16 11:33N 59°20' E 018°04'0 0.0
2014-Apr-16 10:33N 59°20' E 018°04'0 0.0
2014-Apr-16 09:33N 59°20' E 018°04'0 0.0
2014-Apr-16 08:33N 59°20' E 018°04'0 0.0
2014-Apr-16 07:33N 59°20' E 018°04'0 0.0
2014-Apr-16 06:33N 59°20' E 018°04'0 0.0
2014-Apr-16 05:33N 59°20' E 018°04'0 0.0
2014-Apr-16 04:33N 59°20' E 018°04'0 0.0
2014-Apr-16 03:33N 59°20' E 018°04'0 0.0
2014-Apr-16 02:33N 59°20' E 018°04'0 0.0
2014-Apr-16 01:33N 59°20' E 018°04'0 0.0
2014-Apr-16 00:33N 59°20' E 018°04'0 0.0
2014-Apr-15 23:33N 59°20' E 018°04'0 0.0
2014-Apr-15 22:33N 59°20' E 018°04'0 0.0
2014-Apr-15 21:33N 59°20' E 018°04'0 0.0
2014-Apr-15 20:33N 59°20' E 018°04'0 0.0
2014-Apr-15 19:33N 59°20' E 018°04'0 0.0
2014-Apr-15 18:33N 59°20' E 018°04'0 0.0
2014-Apr-15 17:33N 59°20' E 018°04'0 0.0
2014-Apr-15 16:33N 59°20' E 018°04'0 0.0
2014-Apr-15 15:33N 59°20' E 018°04'0 0.0
2014-Apr-15 14:33N 59°20' E 018°04'0 0.0
2014-Apr-15 12:34N 59°20' E 018°04'0 0.0
2014-Apr-15 11:34N 59°20' E 018°04'0 0.0
2014-Apr-15 10:34N 59°20' E 018°04'0 0.0
2014-Apr-15 09:34N 59°20' E 018°04'0 0.0
2014-Apr-15 08:34N 59°20' E 018°04'0 0.0
2014-Apr-15 07:34N 59°20' E 018°04'0 0.0
2014-Apr-15 06:34N 59°20' E 018°04'0 0.0
2014-Apr-15 05:34N 59°20' E 018°04'  

Dump ship's entire track history

sailing weather and tide predictions

Sjobris — SLXP — position and weather